sensor_id;sensor_type;location;lat;lon;timestamp;pressure;altitude;pressure_sealevel;temperature;humidity
69879;BME280;57161;43.136;24.706;2022-08-30T00:01:10;99206.38;;;23.60;65.83
69879;BME280;57161;43.136;24.706;2022-08-30T00:03:39;99188.06;;;23.52;65.67
69879;BME280;57161;43.136;24.706;2022-08-30T00:06:06;99184.56;;;23.53;64.84
69879;BME280;57161;43.136;24.706;2022-08-30T00:08:32;99195.44;;;23.71;64.07
69879;BME280;57161;43.136;24.706;2022-08-30T00:10:59;99185.19;;;23.79;62.88
69879;BME280;57161;43.136;24.706;2022-08-30T00:13:26;99186.41;;;23.90;61.40
69879;BME280;57161;43.136;24.706;2022-08-30T00:15:52;99196.06;;;24.12;60.71
69879;BME280;57161;43.136;24.706;2022-08-30T00:18:18;99192.56;;;24.14;60.49
69879;BME280;57161;43.136;24.706;2022-08-30T00:20:46;99192.66;;;24.16;60.07
69879;BME280;57161;43.136;24.706;2022-08-30T00:23:12;99198.56;;;24.20;59.72
69879;BME280;57161;43.136;24.706;2022-08-30T00:25:38;99196.84;;;24.29;59.33
69879;BME280;57161;43.136;24.706;2022-08-30T00:28:04;99216.09;;;24.28;59.39
69879;BME280;57161;43.136;24.706;2022-08-30T00:30:30;99214.84;;;24.31;59.23
69879;BME280;57161;43.136;24.706;2022-08-30T00:32:55;99220.81;;;24.37;58.86
69879;BME280;57161;43.136;24.706;2022-08-30T00:35:22;99217.88;;;24.35;58.78
69879;BME280;57161;43.136;24.706;2022-08-30T00:37:47;99219.44;;;24.38;58.79
69879;BME280;57161;43.136;24.706;2022-08-30T00:40:14;99225.47;;;24.44;58.71
69879;BME280;57161;43.136;24.706;2022-08-30T00:42:41;99225.25;;;24.40;59.45
69879;BME280;57161;43.136;24.706;2022-08-30T00:45:28;99233.19;;;24.42;59.32
69879;BME280;57161;43.136;24.706;2022-08-30T00:47:55;99218.94;;;24.28;60.66
69879;BME280;57161;43.136;24.706;2022-08-30T00:50:22;99223.78;;;24.39;59.57
69879;BME280;57161;43.136;24.706;2022-08-30T00:52:52;99231.06;;;24.42;60.77
69879;BME280;57161;43.136;24.706;2022-08-30T00:55:19;99220.44;;;24.29;61.77
69879;BME280;57161;43.136;24.706;2022-08-30T00:57:46;99226.03;;;24.27;62.04
69879;BME280;57161;43.136;24.706;2022-08-30T01:00:15;99216.69;;;24.11;62.19
69879;BME280;57161;43.136;24.706;2022-08-30T01:02:41;99217.22;;;24.07;61.68
69879;BME280;57161;43.136;24.706;2022-08-30T01:05:09;99219.44;;;24.09;61.87
69879;BME280;57161;43.136;24.706;2022-08-30T01:07:36;99223.97;;;24.14;62.01
69879;BME280;57161;43.136;24.706;2022-08-30T01:10:03;99209.28;;;24.06;61.99
69879;BME280;57161;43.136;24.706;2022-08-30T01:12:28;99219.44;;;24.09;61.77
69879;BME280;57161;43.136;24.706;2022-08-30T01:14:55;99216.47;;;24.07;61.35
69879;BME280;57161;43.136;24.706;2022-08-30T01:17:21;99212.09;;;24.19;61.03
69879;BME280;57161;43.136;24.706;2022-08-30T01:20:08;99216.53;;;24.22;61.16
69879;BME280;57161;43.136;24.706;2022-08-30T01:25:21;99206.66;;;24.10;62.29
69879;BME280;57161;43.136;24.706;2022-08-30T01:28:15;99209.22;;;23.90;63.16
69879;BME280;57161;43.136;24.706;2022-08-30T01:30:42;99206.53;;;23.78;63.57
69879;BME280;57161;43.136;24.706;2022-08-30T01:33:10;99212.16;;;23.76;63.76
69879;BME280;57161;43.136;24.706;2022-08-30T01:35:57;99206.84;;;23.71;63.21
69879;BME280;57161;43.136;24.706;2022-08-30T01:38:41;99196.34;;;23.59;63.44
69879;BME280;57161;43.136;24.706;2022-08-30T01:41:24;99197.28;;;23.64;63.58
69879;BME280;57161;43.136;24.706;2022-08-30T01:43:52;99202.13;;;23.61;63.93
69879;BME280;57161;43.136;24.706;2022-08-30T01:46:20;99201.03;;;23.55;63.94
69879;BME280;57161;43.136;24.706;2022-08-30T01:48:47;99200.53;;;23.58;64.63
69879;BME280;57161;43.136;24.706;2022-08-30T01:51:13;99193.66;;;23.50;64.94
69879;BME280;57161;43.136;24.706;2022-08-30T01:53:41;99194.41;;;23.50;65.01
69879;BME280;57161;43.136;24.706;2022-08-30T01:56:07;99189.25;;;23.47;64.63
69879;BME280;57161;43.136;24.706;2022-08-30T01:58:34;99185.22;;;23.52;65.11
69879;BME280;57161;43.136;24.706;2022-08-30T02:01:00;99186.50;;;23.49;64.84
69879;BME280;57161;43.136;24.706;2022-08-30T02:03:25;99186.59;;;23.37;65.32
69879;BME280;57161;43.136;24.706;2022-08-30T02:05:55;99178.91;;;23.26;65.25
69879;BME280;57161;43.136;24.706;2022-08-30T02:08:20;99176.19;;;23.28;65.29
69879;BME280;57161;43.136;24.706;2022-08-30T02:10:46;99173.53;;;23.18;65.68
69879;BME280;57161;43.136;24.706;2022-08-30T02:13:11;99175.94;;;23.10;66.19
69879;BME280;57161;43.136;24.706;2022-08-30T02:15:37;99181.53;;;23.08;66.41
69879;BME280;57161;43.136;24.706;2022-08-30T02:18:03;99175.09;;;23.08;66.84
69879;BME280;57161;43.136;24.706;2022-08-30T02:20:28;99180.06;;;23.07;66.95
69879;BME280;57161;43.136;24.706;2022-08-30T02:22:53;99179.31;;;22.93;67.38
69879;BME280;57161;43.136;24.706;2022-08-30T02:25:19;99174.34;;;22.80;67.82
69879;BME280;57161;43.136;24.706;2022-08-30T02:27:45;99160.81;;;22.66;67.89
69879;BME280;57161;43.136;24.706;2022-08-30T02:30:11;99157.25;;;22.66;68.23
69879;BME280;57161;43.136;24.706;2022-08-30T02:32:36;99174.22;;;22.64;68.29
69879;BME280;57161;43.136;24.706;2022-08-30T02:35:02;99181.06;;;22.72;67.92
69879;BME280;57161;43.136;24.706;2022-08-30T02:37:28;99177.28;;;22.68;68.08
69879;BME280;57161;43.136;24.706;2022-08-30T02:39:53;99179.59;;;22.71;67.94
69879;BME280;57161;43.136;24.706;2022-08-30T02:42:18;99172.53;;;22.72;67.89
69879;BME280;57161;43.136;24.706;2022-08-30T02:44:44;99176.75;;;22.71;68.15
69879;BME280;57161;43.136;24.706;2022-08-30T02:47:09;99165.03;;;22.65;67.84
69879;BME280;57161;43.136;24.706;2022-08-30T02:49:35;99180.13;;;22.68;68.21
69879;BME280;57161;43.136;24.706;2022-08-30T02:52:03;99179.81;;;22.62;68.52
69879;BME280;57161;43.136;24.706;2022-08-30T02:54:29;99176.81;;;22.46;68.87
69879;BME280;57161;43.136;24.706;2022-08-30T02:56:57;99180.56;;;22.37;69.38
69879;BME280;57161;43.136;24.706;2022-08-30T02:59:22;99177.84;;;22.39;69.66
69879;BME280;57161;43.136;24.706;2022-08-30T03:01:48;99181.94;;;22.36;69.91
69879;BME280;57161;43.136;24.706;2022-08-30T03:04:13;99184.56;;;22.32;69.97
69879;BME280;57161;43.136;24.706;2022-08-30T03:06:39;99185.22;;;22.30;69.89
69879;BME280;57161;43.136;24.706;2022-08-30T03:09:04;99177.25;;;22.15;70.46
69879;BME280;57161;43.136;24.706;2022-08-30T03:11:30;99207.00;;;22.26;70.16
69879;BME280;57161;43.136;24.706;2022-08-30T03:13:56;99180.34;;;22.07;70.66
69879;BME280;57161;43.136;24.706;2022-08-30T03:16:21;99186.63;;;22.17;70.48
69879;BME280;57161;43.136;24.706;2022-08-30T03:18:47;99187.25;;;22.16;70.28
69879;BME280;57161;43.136;24.706;2022-08-30T03:21:14;99194.03;;;22.23;70.53
69879;BME280;57161;43.136;24.706;2022-08-30T03:23:41;99182.75;;;22.25;70.04
69879;BME280;57161;43.136;24.706;2022-08-30T03:26:08;99197.97;;;22.29;69.40
69879;BME280;57161;43.136;24.706;2022-08-30T03:28:37;99194.97;;;22.27;69.72
69879;BME280;57161;43.136;24.706;2022-08-30T03:31:02;99192.03;;;22.25;69.93
69879;BME280;57161;43.136;24.706;2022-08-30T03:33:28;99157.75;;;21.98;70.42
69879;BME280;57161;43.136;24.706;2022-08-30T03:35:54;99201.66;;;22.32;70.30
69879;BME280;57161;43.136;24.706;2022-08-30T03:38:20;99196.69;;;22.32;70.46
69879;BME280;57161;43.136;24.706;2022-08-30T03:40:45;99195.09;;;22.29;70.46
69879;BME280;57161;43.136;24.706;2022-08-30T03:43:11;99199.19;;;22.26;70.58
69879;BME280;57161;43.136;24.706;2022-08-30T03:45:36;99196.66;;;22.19;70.38
69879;BME280;57161;43.136;24.706;2022-08-30T03:48:03;99201.28;;;22.26;70.57
69879;BME280;57161;43.136;24.706;2022-08-30T03:50:29;99195.28;;;22.20;70.39
69879;BME280;57161;43.136;24.706;2022-08-30T03:52:55;99184.91;;;22.12;70.67
69879;BME280;57161;43.136;24.706;2022-08-30T03:55:21;99198.22;;;22.22;70.64
69879;BME280;57161;43.136;24.706;2022-08-30T03:57:46;99215.19;;;22.20;70.56
69879;BME280;57161;43.136;24.706;2022-08-30T04:00:14;99208.19;;;22.09;71.09
69879;BME280;57161;43.136;24.706;2022-08-30T04:02:40;99206.72;;;22.08;71.02
69879;BME280;57161;43.136;24.706;2022-08-30T04:05:07;99214.88;;;22.13;71.06
69879;BME280;57161;43.136;24.706;2022-08-30T04:07:33;99198.66;;;22.04;70.73
69879;BME280;57161;43.136;24.706;2022-08-30T04:09:58;99191.22;;;22.11;70.45
69879;BME280;57161;43.136;24.706;2022-08-30T04:12:25;99212.69;;;22.26;70.12
69879;BME280;57161;43.136;24.706;2022-08-30T04:14:51;99201.03;;;22.33;70.09
69879;BME280;57161;43.136;24.706;2022-08-30T04:17:16;99213.81;;;22.46;69.44
69879;BME280;57161;43.136;24.706;2022-08-30T04:19:42;99202.94;;;22.42;68.77
69879;BME280;57161;43.136;24.706;2022-08-30T04:22:07;99218.06;;;22.59;68.95
69879;BME280;57161;43.136;24.706;2022-08-30T04:24:33;99213.84;;;22.60;69.07
69879;BME280;57161;43.136;24.706;2022-08-30T04:26:59;99216.56;;;22.58;68.58
69879;BME280;57161;43.136;24.706;2022-08-30T04:29:24;99221.56;;;22.71;68.03
69879;BME280;57161;43.136;24.706;2022-08-30T04:31:50;99213.34;;;22.77;67.41
69879;BME280;57161;43.136;24.706;2022-08-30T04:34:15;99224.38;;;22.83;67.45
69879;BME280;57161;43.136;24.706;2022-08-30T04:36:42;99221.41;;;22.81;67.31
69879;BME280;57161;43.136;24.706;2022-08-30T04:39:07;99231.22;;;22.91;67.86
69879;BME280;57161;43.136;24.706;2022-08-30T04:41:35;99234.19;;;22.93;67.77
69879;BME280;57161;43.136;24.706;2022-08-30T04:44:01;99227.34;;;22.98;67.83
69879;BME280;57161;43.136;24.706;2022-08-30T04:46:28;99239.16;;;22.93;68.59
69879;BME280;57161;43.136;24.706;2022-08-30T04:48:53;99230.00;;;22.94;68.45
69879;BME280;57161;43.136;24.706;2022-08-30T04:51:19;99233.38;;;23.04;68.23
69879;BME280;57161;43.136;24.706;2022-08-30T04:53:44;99239.06;;;23.04;68.04
69879;BME280;57161;43.136;24.706;2022-08-30T04:56:16;99241.63;;;23.12;67.96
69879;BME280;57161;43.136;24.706;2022-08-30T04:58:43;99237.91;;;23.23;68.03
69879;BME280;57161;43.136;24.706;2022-08-30T05:01:14;99249.13;;;23.33;67.50
69879;BME280;57161;43.136;24.706;2022-08-30T05:03:40;99253.00;;;23.53;66.47
69879;BME280;57161;43.136;24.706;2022-08-30T05:06:06;99254.69;;;23.72;65.69
69879;BME280;57161;43.136;24.706;2022-08-30T05:08:31;99261.13;;;23.86;65.09
69879;BME280;57161;43.136;24.706;2022-08-30T05:10:57;99262.03;;;24.05;64.79
69879;BME280;57161;43.136;24.706;2022-08-30T05:13:23;99265.41;;;24.15;64.69
69879;BME280;57161;43.136;24.706;2022-08-30T05:15:48;99254.72;;;24.29;63.68
69879;BME280;57161;43.136;24.706;2022-08-30T05:18:14;99269.47;;;24.39;63.24
69879;BME280;57161;43.136;24.706;2022-08-30T05:20:40;99273.59;;;24.36;63.11
69879;BME280;57161;43.136;24.706;2022-08-30T05:23:06;99262.50;;;24.29;63.15
69879;BME280;57161;43.136;24.706;2022-08-30T05:25:35;99270.69;;;24.50;62.60
69879;BME280;57161;43.136;24.706;2022-08-30T05:28:02;99275.75;;;24.51;62.55
69879;BME280;57161;43.136;24.706;2022-08-30T05:30:32;99275.94;;;24.55;62.53
69879;BME280;57161;43.136;24.706;2022-08-30T05:32:57;99273.94;;;24.58;62.44
69879;BME280;57161;43.136;24.706;2022-08-30T05:35:23;99275.16;;;24.69;61.33
69879;BME280;57161;43.136;24.706;2022-08-30T05:37:48;99276.34;;;24.64;61.62
69879;BME280;57161;43.136;24.706;2022-08-30T05:40:15;99284.84;;;24.77;61.51
69879;BME280;57161;43.136;24.706;2022-08-30T05:42:45;99288.81;;;24.86;61.07
69879;BME280;57161;43.136;24.706;2022-08-30T05:45:12;99279.97;;;24.96;59.91
69879;BME280;57161;43.136;24.706;2022-08-30T05:47:38;99285.63;;;25.09;59.74
69879;BME280;57161;43.136;24.706;2022-08-30T05:50:04;99279.72;;;25.21;59.25
69879;BME280;57161;43.136;24.706;2022-08-30T05:52:34;99289.88;;;25.24;57.09
69879;BME280;57161;43.136;24.706;2022-08-30T05:54:59;99281.66;;;25.32;57.10
69879;BME280;57161;43.136;24.706;2022-08-30T05:57:31;99283.84;;;25.50;56.70
69879;BME280;57161;43.136;24.706;2022-08-30T05:59:57;99286.34;;;25.57;56.26
69879;BME280;57161;43.136;24.706;2022-08-30T06:02:22;99293.16;;;25.66;55.57
69879;BME280;57161;43.136;24.706;2022-08-30T06:04:48;99291.31;;;25.72;55.67
69879;BME280;57161;43.136;24.706;2022-08-30T06:07:13;99283.72;;;25.79;55.46
69879;BME280;57161;43.136;24.706;2022-08-30T06:09:39;99273.84;;;25.66;55.66
69879;BME280;57161;43.136;24.706;2022-08-30T06:12:04;99288.34;;;25.70;55.58
69879;BME280;57161;43.136;24.706;2022-08-30T06:14:30;99291.22;;;25.70;55.17
69879;BME280;57161;43.136;24.706;2022-08-30T06:16:55;99289.53;;;25.65;55.86
69879;BME280;57161;43.136;24.706;2022-08-30T06:19:22;99295.00;;;25.75;55.49
69879;BME280;57161;43.136;24.706;2022-08-30T06:21:49;99294.72;;;25.69;55.86
69879;BME280;57161;43.136;24.706;2022-08-30T06:24:15;99296.31;;;25.72;55.70
69879;BME280;57161;43.136;24.706;2022-08-30T06:26:43;99300.34;;;25.67;56.25
69879;BME280;57161;43.136;24.706;2022-08-30T06:29:13;99296.31;;;25.72;55.57
69879;BME280;57161;43.136;24.706;2022-08-30T06:31:38;99304.75;;;25.86;56.04
69879;BME280;57161;43.136;24.706;2022-08-30T06:34:04;99294.53;;;25.81;55.58
69879;BME280;57161;43.136;24.706;2022-08-30T06:36:30;99300.38;;;26.00;55.15
69879;BME280;57161;43.136;24.706;2022-08-30T06:38:57;99295.38;;;26.01;54.93
69879;BME280;57161;43.136;24.706;2022-08-30T06:41:30;99303.25;;;26.18;54.62
69879;BME280;57161;43.136;24.706;2022-08-30T06:43:57;99303.69;;;26.28;54.23
69879;BME280;57161;43.136;24.706;2022-08-30T06:46:27;99285.84;;;26.30;53.63
69879;BME280;57161;43.136;24.706;2022-08-30T06:48:52;99299.34;;;26.27;53.71
69879;BME280;57161;43.136;24.706;2022-08-30T06:51:31;99291.41;;;26.26;54.01
69879;BME280;57161;43.136;24.706;2022-08-30T06:53:57;99300.91;;;26.30;53.79
69879;BME280;57161;43.136;24.706;2022-08-30T06:56:24;99305.25;;;26.49;53.81
69879;BME280;57161;43.136;24.706;2022-08-30T06:58:50;99310.59;;;26.75;53.91
69879;BME280;57161;43.136;24.706;2022-08-30T07:01:22;99312.53;;;27.06;52.98
69879;BME280;57161;43.136;24.706;2022-08-30T07:03:49;99306.81;;;27.26;51.58
69879;BME280;57161;43.136;24.706;2022-08-30T07:06:15;99294.69;;;27.27;51.35
69879;BME280;57161;43.136;24.706;2022-08-30T07:08:41;99304.47;;;27.40;51.34
69879;BME280;57161;43.136;24.706;2022-08-30T07:11:08;99308.97;;;27.45;51.42
69879;BME280;57161;43.136;24.706;2022-08-30T07:13:34;99308.28;;;27.46;51.16
69879;BME280;57161;43.136;24.706;2022-08-30T07:16:00;99311.41;;;27.52;50.90
69879;BME280;57161;43.136;24.706;2022-08-30T07:18:25;99309.63;;;27.43;51.26
69879;BME280;57161;43.136;24.706;2022-08-30T07:21:13;99310.03;;;27.16;51.20
69879;BME280;57161;43.136;24.706;2022-08-30T07:23:40;99322.22;;;27.34;51.66
69879;BME280;57161;43.136;24.706;2022-08-30T07:26:08;99317.06;;;27.50;51.18
69879;BME280;57161;43.136;24.706;2022-08-30T07:28:36;99334.91;;;27.67;50.81
69879;BME280;57161;43.136;24.706;2022-08-30T07:31:01;99333.78;;;27.76;50.42
69879;BME280;57161;43.136;24.706;2022-08-30T07:33:27;99332.44;;;27.79;50.73
69879;BME280;57161;43.136;24.706;2022-08-30T07:35:52;99337.28;;;27.94;50.58
69879;BME280;57161;43.136;24.706;2022-08-30T07:38:18;99327.50;;;28.01;50.19
69879;BME280;57161;43.136;24.706;2022-08-30T07:40:43;99320.78;;;27.95;50.32
69879;BME280;57161;43.136;24.706;2022-08-30T07:43:09;99298.91;;;27.84;50.65
69879;BME280;57161;43.136;24.706;2022-08-30T07:45:36;99317.81;;;28.13;49.97
69879;BME280;57161;43.136;24.706;2022-08-30T07:48:02;99332.81;;;28.31;50.01
69879;BME280;57161;43.136;24.706;2022-08-30T07:50:28;99343.97;;;28.43;49.55
69879;BME280;57161;43.136;24.706;2022-08-30T07:52:54;99333.69;;;28.57;49.23
69879;BME280;57161;43.136;24.706;2022-08-30T07:55:20;99337.16;;;28.54;49.00
69879;BME280;57161;43.136;24.706;2022-08-30T07:57:45;99333.78;;;28.37;50.05
69879;BME280;57161;43.136;24.706;2022-08-30T08:00:11;99335.16;;;28.58;49.69
69879;BME280;57161;43.136;24.706;2022-08-30T08:02:37;99341.50;;;28.55;49.05
69879;BME280;57161;43.136;24.706;2022-08-30T08:05:05;99338.66;;;28.33;49.55
69879;BME280;57161;43.136;24.706;2022-08-30T08:07:32;99342.47;;;28.20;50.07
69879;BME280;57161;43.136;24.706;2022-08-30T08:09:58;99331.13;;;27.82;50.44
69879;BME280;57161;43.136;24.706;2022-08-30T08:12:23;99338.81;;;27.97;50.31
69879;BME280;57161;43.136;24.706;2022-08-30T08:14:49;99338.69;;;27.93;50.43
69879;BME280;57161;43.136;24.706;2022-08-30T08:17:15;99347.13;;;28.29;49.68
69879;BME280;57161;43.136;24.706;2022-08-30T08:19:40;99349.34;;;28.10;50.47
69879;BME280;57161;43.136;24.706;2022-08-30T08:22:06;99350.84;;;27.92;50.51
69879;BME280;57161;43.136;24.706;2022-08-30T08:24:31;99353.81;;;27.74;51.79
69879;BME280;57161;43.136;24.706;2022-08-30T08:26:57;99355.34;;;27.77;51.15
69879;BME280;57161;43.136;24.706;2022-08-30T08:29:22;99339.16;;;27.66;51.35
69879;BME280;57161;43.136;24.706;2022-08-30T08:31:48;99356.44;;;27.88;50.46
69879;BME280;57161;43.136;24.706;2022-08-30T08:34:14;99363.72;;;27.91;50.39
69879;BME280;57161;43.136;24.706;2022-08-30T08:36:43;99339.28;;;27.90;50.08
69879;BME280;57161;43.136;24.706;2022-08-30T08:39:08;99359.75;;;28.00;50.09
69879;BME280;57161;43.136;24.706;2022-08-30T08:44:28;99350.19;;;27.93;50.37
69879;BME280;57161;43.136;24.706;2022-08-30T08:49:28;99354.88;;;28.46;49.58
69879;BME280;57161;43.136;24.706;2022-08-30T08:51:54;99355.31;;;28.17;49.81
69879;BME280;57161;43.136;24.706;2022-08-30T08:54:46;99361.91;;;28.21;49.20
69879;BME280;57161;43.136;24.706;2022-08-30T08:57:13;99352.78;;;28.27;49.66
69879;BME280;57161;43.136;24.706;2022-08-30T08:59:38;99364.09;;;28.43;49.64
69879;BME280;57161;43.136;24.706;2022-08-30T09:04:53;99355.38;;;29.06;48.99
69879;BME280;57161;43.136;24.706;2022-08-30T09:07:22;99358.31;;;29.32;48.82
69879;BME280;57161;43.136;24.706;2022-08-30T09:09:48;99369.44;;;29.44;48.17
69879;BME280;57161;43.136;24.706;2022-08-30T09:12:14;99362.59;;;29.31;48.75
69879;BME280;57161;43.136;24.706;2022-08-30T09:14:43;99346.25;;;28.68;49.94
69879;BME280;57161;43.136;24.706;2022-08-30T09:17:12;99360.88;;;28.76;50.00
69879;BME280;57161;43.136;24.706;2022-08-30T09:27:42;99363.13;;;29.47;48.48
69879;BME280;57161;43.136;24.706;2022-08-30T09:35:41;99324.06;;;29.42;47.11
69879;BME280;57161;43.136;24.706;2022-08-30T09:38:09;99344.66;;;29.09;47.78
69879;BME280;57161;43.136;24.706;2022-08-30T09:40:44;99336.22;;;28.69;47.97
69879;BME280;57161;43.136;24.706;2022-08-30T09:45:47;99342.81;;;28.95;49.28
69879;BME280;57161;43.136;24.706;2022-08-30T09:54:01;99342.47;;;29.31;48.29
69879;BME280;57161;43.136;24.706;2022-08-30T10:15:49;99339.97;;;29.19;48.55
69879;BME280;57161;43.136;24.706;2022-08-30T10:18:29;99335.31;;;29.32;48.55
69879;BME280;57161;43.136;24.706;2022-08-30T10:21:17;99325.44;;;29.63;48.09
69879;BME280;57161;43.136;24.706;2022-08-30T10:24:07;99337.81;;;29.96;47.36
69879;BME280;57161;43.136;24.706;2022-08-30T10:26:48;99311.91;;;29.70;46.83
69879;BME280;57161;43.136;24.706;2022-08-30T10:29:21;99327.97;;;29.51;47.59
69879;BME280;57161;43.136;24.706;2022-08-30T10:32:02;99325.06;;;29.51;47.26
69879;BME280;57161;43.136;24.706;2022-08-30T10:37:28;99323.09;;;29.83;48.63
69879;BME280;57161;43.136;24.706;2022-08-30T10:40:03;99331.94;;;29.92;48.29
69879;BME280;57161;43.136;24.706;2022-08-30T10:42:50;99316.56;;;29.31;49.33
69879;BME280;57161;43.136;24.706;2022-08-30T10:45:17;99326.47;;;29.26;49.55
69879;BME280;57161;43.136;24.706;2022-08-30T10:47:58;99323.28;;;29.40;49.37
69879;BME280;57161;43.136;24.706;2022-08-30T10:50:34;99326.69;;;29.58;48.40
69879;BME280;57161;43.136;24.706;2022-08-30T10:53:11;99326.00;;;29.34;48.81
69879;BME280;57161;43.136;24.706;2022-08-30T10:58:11;99329.47;;;28.82;49.75
69879;BME280;57161;43.136;24.706;2022-08-30T11:03:55;99323.66;;;29.52;49.67
69879;BME280;57161;43.136;24.706;2022-08-30T11:14:53;99317.16;;;30.31;48.19
69879;BME280;57161;43.136;24.706;2022-08-30T11:19:51;99305.38;;;29.67;48.81
69879;BME280;57161;43.136;24.706;2022-08-30T11:22:34;99318.94;;;30.16;48.36
69879;BME280;57161;43.136;24.706;2022-08-30T11:41:27;99287.31;;;30.18;47.27
69879;BME280;57161;43.136;24.706;2022-08-30T11:43:53;99277.78;;;30.12;47.25
69879;BME280;57161;43.136;24.706;2022-08-30T11:55:18;99279.84;;;30.09;46.98
69879;BME280;57161;43.136;24.706;2022-08-30T12:00:39;99260.94;;;29.74;46.80
69879;BME280;57161;43.136;24.706;2022-08-30T12:03:30;99264.97;;;29.91;46.78
69879;BME280;57161;43.136;24.706;2022-08-30T12:06:05;99267.59;;;30.09;46.33
69879;BME280;57161;43.136;24.706;2022-08-30T12:11:03;99258.19;;;30.36;45.70
69879;BME280;57161;43.136;24.706;2022-08-30T12:16:22;99267.69;;;30.11;46.35
69879;BME280;57161;43.136;24.706;2022-08-30T12:19:10;99262.47;;;30.05;46.29
69879;BME280;57161;43.136;24.706;2022-08-30T12:21:38;99254.88;;;30.18;46.12
69879;BME280;57161;43.136;24.706;2022-08-30T12:31:47;99247.38;;;30.07;45.13
69879;BME280;57161;43.136;24.706;2022-08-30T12:34:21;99238.47;;;29.97;45.20
69879;BME280;57161;43.136;24.706;2022-08-30T12:39:42;99236.94;;;30.22;43.64
69879;BME280;57161;43.136;24.706;2022-08-30T12:42:23;99211.03;;;30.22;44.04
69879;BME280;57161;43.136;24.706;2022-08-30T12:44:51;99221.84;;;30.53;44.35
69879;BME280;57161;43.136;24.706;2022-08-30T12:47:22;99218.41;;;30.61;45.14
69879;BME280;57161;43.136;24.706;2022-08-30T12:49:50;99214.28;;;31.04;43.95
69879;BME280;57161;43.136;24.706;2022-08-30T12:52:29;99215.63;;;31.33;41.78
69879;BME280;57161;43.136;24.706;2022-08-30T12:55:15;99209.00;;;31.66;41.03
69879;BME280;57161;43.136;24.706;2022-08-30T12:58:04;99206.88;;;31.69;42.84
69879;BME280;57161;43.136;24.706;2022-08-30T13:00:34;99203.00;;;31.92;41.83
69879;BME280;57161;43.136;24.706;2022-08-30T13:03:04;99193.50;;;31.86;42.58
69879;BME280;57161;43.136;24.706;2022-08-30T13:08:22;99186.72;;;31.71;41.43
69879;BME280;57161;43.136;24.706;2022-08-30T13:11:03;99183.06;;;31.28;41.13
69879;BME280;57161;43.136;24.706;2022-08-30T13:13:39;99184.19;;;31.13;42.83
69879;BME280;57161;43.136;24.706;2022-08-30T13:16:20;99184.53;;;31.29;41.53
69879;BME280;57161;43.136;24.706;2022-08-30T13:19:24;99178.66;;;31.63;39.35
69879;BME280;57161;43.136;24.706;2022-08-30T13:21:54;99174.47;;;31.73;39.91
69879;BME280;57161;43.136;24.706;2022-08-30T13:24:20;99164.16;;;31.59;37.44
69879;BME280;57161;43.136;24.706;2022-08-30T13:26:45;99176.91;;;31.46;39.17
69879;BME280;57161;43.136;24.706;2022-08-30T13:29:20;99160.88;;;31.77;39.10
69879;BME280;57161;43.136;24.706;2022-08-30T13:31:46;99164.97;;;32.08;37.64
69879;BME280;57161;43.136;24.706;2022-08-30T13:34:12;99158.06;;;32.28;38.01
69879;BME280;57161;43.136;24.706;2022-08-30T13:36:46;99145.63;;;32.21;37.34
69879;BME280;57161;43.136;24.706;2022-08-30T13:39:14;99146.78;;;32.02;38.66
69879;BME280;57161;43.136;24.706;2022-08-30T13:41:40;99131.09;;;32.15;38.75
69879;BME280;57161;43.136;24.706;2022-08-30T13:44:06;99139.44;;;32.39;38.49
69879;BME280;57161;43.136;24.706;2022-08-30T13:46:31;99145.22;;;32.39;39.39
69879;BME280;57161;43.136;24.706;2022-08-30T13:49:02;99139.91;;;32.23;39.41
69879;BME280;57161;43.136;24.706;2022-08-30T13:51:27;99138.94;;;32.06;39.73
69879;BME280;57161;43.136;24.706;2022-08-30T13:53:53;99121.44;;;31.96;39.46
69879;BME280;57161;43.136;24.706;2022-08-30T13:56:19;99117.16;;;32.01;39.38
69879;BME280;57161;43.136;24.706;2022-08-30T13:58:44;99112.03;;;31.95;39.60
69879;BME280;57161;43.136;24.706;2022-08-30T14:01:09;99114.16;;;31.91;39.73
69879;BME280;57161;43.136;24.706;2022-08-30T14:03:35;99112.78;;;31.96;39.62
69879;BME280;57161;43.136;24.706;2022-08-30T14:06:00;99118.56;;;31.96;39.61
69879;BME280;57161;43.136;24.706;2022-08-30T14:08:28;99111.28;;;31.93;39.22
69879;BME280;57161;43.136;24.706;2022-08-30T14:10:55;99116.25;;;31.88;39.40
69879;BME280;57161;43.136;24.706;2022-08-30T14:13:22;99114.97;;;31.98;39.17
69879;BME280;57161;43.136;24.706;2022-08-30T14:15:49;99108.56;;;32.05;39.35
69879;BME280;57161;43.136;24.706;2022-08-30T14:18:15;99118.00;;;32.08;39.40
69879;BME280;57161;43.136;24.706;2022-08-30T14:20:40;99107.06;;;32.02;39.91
69879;BME280;57161;43.136;24.706;2022-08-30T14:23:06;99107.16;;;32.06;39.74
69879;BME280;57161;43.136;24.706;2022-08-30T14:25:32;99113.78;;;32.17;39.34
69879;BME280;57161;43.136;24.706;2022-08-30T14:27:58;99124.41;;;32.02;39.60
69879;BME280;57161;43.136;24.706;2022-08-30T14:30:24;99115.75;;;32.02;39.46
69879;BME280;57161;43.136;24.706;2022-08-30T14:32:50;99132.25;;;31.95;39.61
69879;BME280;57161;43.136;24.706;2022-08-30T14:35:15;99124.38;;;32.00;39.72
69879;BME280;57161;43.136;24.706;2022-08-30T14:37:44;99129.59;;;32.10;39.61
69879;BME280;57161;43.136;24.706;2022-08-30T14:40:10;99123.84;;;32.12;39.67
69879;BME280;57161;43.136;24.706;2022-08-30T14:42:36;99118.06;;;32.12;39.30
69879;BME280;57161;43.136;24.706;2022-08-30T14:45:02;99111.28;;;31.93;39.44
69879;BME280;57161;43.136;24.706;2022-08-30T14:47:27;99119.84;;;31.87;39.61
69879;BME280;57161;43.136;24.706;2022-08-30T14:49:53;99112.59;;;31.86;40.07
69879;BME280;57161;43.136;24.706;2022-08-30T14:52:23;99105.97;;;31.75;39.85
69879;BME280;57161;43.136;24.706;2022-08-30T14:54:49;99100.53;;;31.55;39.99